Terminal Aerodrome Forecast
Issued by NWS

Home | Current Version | Previous Version | Text Only | Print | Product List | Glossary On
Versions: 1 2 3 4 5 6 7 8 9 10 11 12 13 14 15 16 17 18 19 20 21 22 23
996
FTUS41 KGYX 281231 AAB
TAFAUG
TAF AMD
KAUG 281231Z 2813/2912 02004KT 1/2SM FG VV002
     FM281800 VRB03KT 3SM -SHRA BR OVC005
     FM290900 34005KT 5SM BR OVC015=

USA.gov is the U.S. government's official web portal to all federal, state and local government web resources and services.